sensor_id;sensor_type;location;lat;lon;timestamp;temperature;humidity
22968;DHT22;11650;48.106;-1.696;2022-12-10T00:01:50;-0.70;99.90
22968;DHT22;11650;48.106;-1.696;2022-12-10T00:04:16;-0.80;99.90
22968;DHT22;11650;48.106;-1.696;2022-12-10T00:06:43;-0.80;99.90
22968;DHT22;11650;48.106;-1.696;2022-12-10T00:09:14;-0.80;99.90
22968;DHT22;11650;48.106;-1.696;2022-12-10T00:11:41;-0.80;99.90
22968;DHT22;11650;48.106;-1.696;2022-12-10T00:14:07;-0.90;99.90
22968;DHT22;11650;48.106;-1.696;2022-12-10T00:16:34;-0.90;99.90
22968;DHT22;11650;48.106;-1.696;2022-12-10T00:19:00;-1.00;99.90
22968;DHT22;11650;48.106;-1.696;2022-12-10T00:21:28;-1.10;99.90
22968;DHT22;11650;48.106;-1.696;2022-12-10T00:23:55;-1.10;99.90
22968;DHT22;11650;48.106;-1.696;2022-12-10T00:26:23;-1.20;99.90
22968;DHT22;11650;48.106;-1.696;2022-12-10T00:28:50;-1.20;99.90
22968;DHT22;11650;48.106;-1.696;2022-12-10T00:31:31;-1.20;99.90
22968;DHT22;11650;48.106;-1.696;2022-12-10T00:33:59;-1.30;99.90
22968;DHT22;11650;48.106;-1.696;2022-12-10T00:36:32;-1.20;99.90
22968;DHT22;11650;48.106;-1.696;2022-12-10T00:38:57;-1.30;99.90
22968;DHT22;11650;48.106;-1.696;2022-12-10T00:41:23;-1.20;99.90
22968;DHT22;11650;48.106;-1.696;2022-12-10T00:43:49;-1.20;99.90
22968;DHT22;11650;48.106;-1.696;2022-12-10T00:46:16;-1.20;99.90
22968;DHT22;11650;48.106;-1.696;2022-12-10T00:48:42;-1.30;99.90
22968;DHT22;11650;48.106;-1.696;2022-12-10T00:51:11;-1.20;99.90
22968;DHT22;11650;48.106;-1.696;2022-12-10T00:53:38;-1.20;99.90
22968;DHT22;11650;48.106;-1.696;2022-12-10T00:56:05;-1.20;99.90
22968;DHT22;11650;48.106;-1.696;2022-12-10T00:58:32;-1.20;99.90
22968;DHT22;11650;48.106;-1.696;2022-12-10T01:01:22;-1.30;99.90
22968;DHT22;11650;48.106;-1.696;2022-12-10T01:03:50;-1.30;99.90
22968;DHT22;11650;48.106;-1.696;2022-12-10T01:06:17;-1.30;99.90
22968;DHT22;11650;48.106;-1.696;2022-12-10T01:08:45;-1.20;99.90
22968;DHT22;11650;48.106;-1.696;2022-12-10T01:11:12;-1.20;99.90
22968;DHT22;11650;48.106;-1.696;2022-12-10T01:13:38;-1.20;99.90
22968;DHT22;11650;48.106;-1.696;2022-12-10T01:16:05;-1.20;99.90
22968;DHT22;11650;48.106;-1.696;2022-12-10T01:18:31;-1.20;99.90
22968;DHT22;11650;48.106;-1.696;2022-12-10T01:21:03;-1.20;99.90
22968;DHT22;11650;48.106;-1.696;2022-12-10T01:23:31;-1.20;99.90
22968;DHT22;11650;48.106;-1.696;2022-12-10T01:26:00;-1.20;99.90
22968;DHT22;11650;48.106;-1.696;2022-12-10T01:28:28;-1.30;99.90
22968;DHT22;11650;48.106;-1.696;2022-12-10T01:30:54;-1.30;99.90
22968;DHT22;11650;48.106;-1.696;2022-12-10T01:33:19;-1.30;99.90
22968;DHT22;11650;48.106;-1.696;2022-12-10T01:35:45;-1.30;99.90
22968;DHT22;11650;48.106;-1.696;2022-12-10T01:38:10;-1.30;99.90
22968;DHT22;11650;48.106;-1.696;2022-12-10T01:40:39;-1.20;99.90
22968;DHT22;11650;48.106;-1.696;2022-12-10T01:43:05;-1.40;99.90
22968;DHT22;11650;48.106;-1.696;2022-12-10T01:45:31;-1.40;99.90
22968;DHT22;11650;48.106;-1.696;2022-12-10T01:47:56;-1.40;99.90
22968;DHT22;11650;48.106;-1.696;2022-12-10T01:50:22;-1.40;99.90
22968;DHT22;11650;48.106;-1.696;2022-12-10T01:52:48;-1.40;99.90
22968;DHT22;11650;48.106;-1.696;2022-12-10T01:55:39;-1.50;99.90
22968;DHT22;11650;48.106;-1.696;2022-12-10T01:58:05;-1.50;99.90
22968;DHT22;11650;48.106;-1.696;2022-12-10T02:00:34;-1.60;99.90
22968;DHT22;11650;48.106;-1.696;2022-12-10T02:03:14;-1.60;99.90
22968;DHT22;11650;48.106;-1.696;2022-12-10T02:05:50;-1.70;99.90
22968;DHT22;11650;48.106;-1.696;2022-12-10T02:08:19;-1.70;99.90
22968;DHT22;11650;48.106;-1.696;2022-12-10T02:11:14;-1.70;99.90
22968;DHT22;11650;48.106;-1.696;2022-12-10T02:13:45;-1.70;99.90
22968;DHT22;11650;48.106;-1.696;2022-12-10T02:16:30;-1.70;99.90
22968;DHT22;11650;48.106;-1.696;2022-12-10T02:21:58;-1.90;99.90
22968;DHT22;11650;48.106;-1.696;2022-12-10T02:24:29;-1.80;99.90
22968;DHT22;11650;48.106;-1.696;2022-12-10T02:29:27;-1.90;99.90
22968;DHT22;11650;48.106;-1.696;2022-12-10T02:32:00;-1.80;99.90
22968;DHT22;11650;48.106;-1.696;2022-12-10T02:34:29;-1.80;99.90
22968;DHT22;11650;48.106;-1.696;2022-12-10T02:36:57;-1.90;99.90
22968;DHT22;11650;48.106;-1.696;2022-12-10T02:39:29;-1.90;99.90
22968;DHT22;11650;48.106;-1.696;2022-12-10T02:41:59;-1.90;99.90
22968;DHT22;11650;48.106;-1.696;2022-12-10T02:44:27;-1.90;99.90
22968;DHT22;11650;48.106;-1.696;2022-12-10T02:46:56;-2.00;99.90
22968;DHT22;11650;48.106;-1.696;2022-12-10T02:49:23;-2.00;99.90
22968;DHT22;11650;48.106;-1.696;2022-12-10T02:51:51;-2.00;99.90
22968;DHT22;11650;48.106;-1.696;2022-12-10T02:54:43;-1.90;99.90
22968;DHT22;11650;48.106;-1.696;2022-12-10T03:00:15;-2.00;99.90
22968;DHT22;11650;48.106;-1.696;2022-12-10T03:08:21;-2.10;99.90
22968;DHT22;11650;48.106;-1.696;2022-12-10T03:13:36;-2.10;99.90
22968;DHT22;11650;48.106;-1.696;2022-12-10T03:16:04;-2.00;99.90
22968;DHT22;11650;48.106;-1.696;2022-12-10T03:18:31;-2.00;99.90
22968;DHT22;11650;48.106;-1.696;2022-12-10T03:21:03;-2.00;99.90
22968;DHT22;11650;48.106;-1.696;2022-12-10T03:23:29;-2.00;99.90
22968;DHT22;11650;48.106;-1.696;2022-12-10T03:25:58;-2.00;99.90
22968;DHT22;11650;48.106;-1.696;2022-12-10T03:28:25;-2.00;99.90
22968;DHT22;11650;48.106;-1.696;2022-12-10T03:30:52;-2.00;99.90
22968;DHT22;11650;48.106;-1.696;2022-12-10T03:33:18;-2.00;99.90
22968;DHT22;11650;48.106;-1.696;2022-12-10T03:35:45;-2.00;99.90
22968;DHT22;11650;48.106;-1.696;2022-12-10T03:38:11;-2.00;99.90
22968;DHT22;11650;48.106;-1.696;2022-12-10T03:40:37;-2.00;99.90
22968;DHT22;11650;48.106;-1.696;2022-12-10T03:43:03;-2.00;99.90
22968;DHT22;11650;48.106;-1.696;2022-12-10T03:45:29;-1.90;99.90
22968;DHT22;11650;48.106;-1.696;2022-12-10T03:47:54;-2.00;99.90
22968;DHT22;11650;48.106;-1.696;2022-12-10T03:50:20;-2.10;99.90
22968;DHT22;11650;48.106;-1.696;2022-12-10T03:52:46;-2.00;99.90
22968;DHT22;11650;48.106;-1.696;2022-12-10T03:55:11;-2.10;99.90
22968;DHT22;11650;48.106;-1.696;2022-12-10T03:57:37;-2.20;99.90
22968;DHT22;11650;48.106;-1.696;2022-12-10T04:00:04;-2.10;99.90
22968;DHT22;11650;48.106;-1.696;2022-12-10T04:02:30;-2.10;99.90
22968;DHT22;11650;48.106;-1.696;2022-12-10T04:04:56;-2.10;99.90
22968;DHT22;11650;48.106;-1.696;2022-12-10T04:07:22;-2.00;99.90
22968;DHT22;11650;48.106;-1.696;2022-12-10T04:09:47;-2.10;99.90
22968;DHT22;11650;48.106;-1.696;2022-12-10T04:12:13;-2.10;99.90
22968;DHT22;11650;48.106;-1.696;2022-12-10T04:14:39;-2.00;99.90
22968;DHT22;11650;48.106;-1.696;2022-12-10T04:17:23;-2.00;99.90
22968;DHT22;11650;48.106;-1.696;2022-12-10T04:19:48;-2.20;99.90
22968;DHT22;11650;48.106;-1.696;2022-12-10T04:22:14;-2.10;99.90
22968;DHT22;11650;48.106;-1.696;2022-12-10T04:24:58;-2.10;99.90
22968;DHT22;11650;48.106;-1.696;2022-12-10T04:27:42;-2.10;99.90
22968;DHT22;11650;48.106;-1.696;2022-12-10T04:30:10;-2.00;99.90
22968;DHT22;11650;48.106;-1.696;2022-12-10T04:32:36;-2.00;99.90
22968;DHT22;11650;48.106;-1.696;2022-12-10T04:35:02;-2.00;99.90
22968;DHT22;11650;48.106;-1.696;2022-12-10T04:37:28;-2.00;99.90
22968;DHT22;11650;48.106;-1.696;2022-12-10T04:39:54;-2.10;99.90
22968;DHT22;11650;48.106;-1.696;2022-12-10T04:42:21;-2.10;99.90
22968;DHT22;11650;48.106;-1.696;2022-12-10T04:44:47;-2.10;99.90
22968;DHT22;11650;48.106;-1.696;2022-12-10T04:47:13;-2.20;99.90
22968;DHT22;11650;48.106;-1.696;2022-12-10T04:49:39;-2.20;99.90
22968;DHT22;11650;48.106;-1.696;2022-12-10T04:52:06;-2.20;99.90
22968;DHT22;11650;48.106;-1.696;2022-12-10T04:54:32;-2.20;99.90
22968;DHT22;11650;48.106;-1.696;2022-12-10T04:56:58;-2.30;99.90
22968;DHT22;11650;48.106;-1.696;2022-12-10T04:59:23;-2.30;99.90
22968;DHT22;11650;48.106;-1.696;2022-12-10T05:01:49;-2.20;99.90
22968;DHT22;11650;48.106;-1.696;2022-12-10T05:04:16;-2.20;99.90
22968;DHT22;11650;48.106;-1.696;2022-12-10T05:06:43;-2.20;99.90
22968;DHT22;11650;48.106;-1.696;2022-12-10T05:09:12;-2.20;99.90
22968;DHT22;11650;48.106;-1.696;2022-12-10T05:11:38;-2.20;99.90
22968;DHT22;11650;48.106;-1.696;2022-12-10T05:14:05;-2.20;99.90
22968;DHT22;11650;48.106;-1.696;2022-12-10T05:16:32;-2.20;99.90
22968;DHT22;11650;48.106;-1.696;2022-12-10T05:18:59;-2.30;99.90
22968;DHT22;11650;48.106;-1.696;2022-12-10T05:21:27;-2.20;99.90
22968;DHT22;11650;48.106;-1.696;2022-12-10T05:24:12;-2.30;99.90
22968;DHT22;11650;48.106;-1.696;2022-12-10T05:26:38;-2.30;99.90
22968;DHT22;11650;48.106;-1.696;2022-12-10T05:29:04;-2.30;99.90
22968;DHT22;11650;48.106;-1.696;2022-12-10T05:31:30;-2.20;99.90
22968;DHT22;11650;48.106;-1.696;2022-12-10T05:33:57;-2.20;99.90
22968;DHT22;11650;48.106;-1.696;2022-12-10T05:36:25;-2.20;99.90
22968;DHT22;11650;48.106;-1.696;2022-12-10T05:38:52;-2.30;99.90
22968;DHT22;11650;48.106;-1.696;2022-12-10T05:41:20;-2.30;99.90
22968;DHT22;11650;48.106;-1.696;2022-12-10T05:43:46;-2.20;99.90
22968;DHT22;11650;48.106;-1.696;2022-12-10T05:46:17;-2.20;99.90
22968;DHT22;11650;48.106;-1.696;2022-12-10T05:48:43;-2.20;99.90
22968;DHT22;11650;48.106;-1.696;2022-12-10T05:51:13;-2.30;99.90
22968;DHT22;11650;48.106;-1.696;2022-12-10T05:53:39;-2.30;99.90
22968;DHT22;11650;48.106;-1.696;2022-12-10T05:56:10;-2.20;99.90
22968;DHT22;11650;48.106;-1.696;2022-12-10T05:58:37;-2.30;99.90
22968;DHT22;11650;48.106;-1.696;2022-12-10T06:01:15;-2.20;99.90
22968;DHT22;11650;48.106;-1.696;2022-12-10T06:03:41;-2.20;99.90
22968;DHT22;11650;48.106;-1.696;2022-12-10T06:06:07;-2.30;99.90
22968;DHT22;11650;48.106;-1.696;2022-12-10T06:08:34;-2.30;99.90
22968;DHT22;11650;48.106;-1.696;2022-12-10T06:11:08;-2.30;99.90
22968;DHT22;11650;48.106;-1.696;2022-12-10T06:13:35;-2.30;99.90
22968;DHT22;11650;48.106;-1.696;2022-12-10T06:16:09;-2.30;99.90
22968;DHT22;11650;48.106;-1.696;2022-12-10T06:18:35;-2.30;99.90
22968;DHT22;11650;48.106;-1.696;2022-12-10T06:21:05;-2.30;99.90
22968;DHT22;11650;48.106;-1.696;2022-12-10T06:23:31;-2.30;99.90
22968;DHT22;11650;48.106;-1.696;2022-12-10T06:25:56;-2.30;99.90
22968;DHT22;11650;48.106;-1.696;2022-12-10T06:28:22;-2.30;99.90
22968;DHT22;11650;48.106;-1.696;2022-12-10T06:30:48;-2.40;99.90
22968;DHT22;11650;48.106;-1.696;2022-12-10T06:33:13;-2.40;99.90
22968;DHT22;11650;48.106;-1.696;2022-12-10T06:35:39;-2.40;99.90
22968;DHT22;11650;48.106;-1.696;2022-12-10T06:38:04;-2.40;99.90
22968;DHT22;11650;48.106;-1.696;2022-12-10T06:40:30;-2.40;99.90
22968;DHT22;11650;48.106;-1.696;2022-12-10T06:42:56;-2.40;99.90
22968;DHT22;11650;48.106;-1.696;2022-12-10T06:45:21;-2.40;99.90
22968;DHT22;11650;48.106;-1.696;2022-12-10T06:47:47;-2.40;99.90
22968;DHT22;11650;48.106;-1.696;2022-12-10T06:50:12;-2.30;99.90
22968;DHT22;11650;48.106;-1.696;2022-12-10T06:52:38;-2.30;99.90
22968;DHT22;11650;48.106;-1.696;2022-12-10T06:55:04;-2.40;99.90
22968;DHT22;11650;48.106;-1.696;2022-12-10T06:57:30;-2.40;99.90
22968;DHT22;11650;48.106;-1.696;2022-12-10T06:59:55;-2.40;99.90
22968;DHT22;11650;48.106;-1.696;2022-12-10T07:02:21;-2.40;99.90
22968;DHT22;11650;48.106;-1.696;2022-12-10T07:04:46;-2.30;99.90
22968;DHT22;11650;48.106;-1.696;2022-12-10T07:07:12;-2.30;99.90
22968;DHT22;11650;48.106;-1.696;2022-12-10T07:09:38;-2.40;99.90
22968;DHT22;11650;48.106;-1.696;2022-12-10T07:12:04;-2.40;99.90
22968;DHT22;11650;48.106;-1.696;2022-12-10T07:14:30;-2.40;99.90
22968;DHT22;11650;48.106;-1.696;2022-12-10T07:16:55;-2.40;99.90
22968;DHT22;11650;48.106;-1.696;2022-12-10T07:19:22;-2.40;99.90
22968;DHT22;11650;48.106;-1.696;2022-12-10T07:21:47;-2.40;99.90
22968;DHT22;11650;48.106;-1.696;2022-12-10T07:24:16;-2.30;99.90
22968;DHT22;11650;48.106;-1.696;2022-12-10T07:26:43;-2.40;99.90
22968;DHT22;11650;48.106;-1.696;2022-12-10T07:29:14;-2.40;99.90
22968;DHT22;11650;48.106;-1.696;2022-12-10T07:31:40;-2.40;99.90
22968;DHT22;11650;48.106;-1.696;2022-12-10T07:34:06;-2.40;99.90
22968;DHT22;11650;48.106;-1.696;2022-12-10T07:36:32;-2.40;99.90
22968;DHT22;11650;48.106;-1.696;2022-12-10T07:38:57;-2.40;99.90
22968;DHT22;11650;48.106;-1.696;2022-12-10T07:41:24;-2.40;99.90
22968;DHT22;11650;48.106;-1.696;2022-12-10T07:43:50;-2.40;99.90
22968;DHT22;11650;48.106;-1.696;2022-12-10T07:46:25;-2.50;99.90
22968;DHT22;11650;48.106;-1.696;2022-12-10T07:48:51;-2.40;99.90
22968;DHT22;11650;48.106;-1.696;2022-12-10T07:51:18;-2.40;99.90
22968;DHT22;11650;48.106;-1.696;2022-12-10T07:53:44;-2.40;99.90
22968;DHT22;11650;48.106;-1.696;2022-12-10T07:56:11;-2.40;99.90
22968;DHT22;11650;48.106;-1.696;2022-12-10T07:58:37;-2.50;99.90
22968;DHT22;11650;48.106;-1.696;2022-12-10T08:01:07;-2.40;99.90
22968;DHT22;11650;48.106;-1.696;2022-12-10T08:03:33;-2.40;99.90
22968;DHT22;11650;48.106;-1.696;2022-12-10T08:06:03;-2.40;99.90
22968;DHT22;11650;48.106;-1.696;2022-12-10T08:08:29;-2.30;99.90
22968;DHT22;11650;48.106;-1.696;2022-12-10T08:10:55;-2.30;99.90
22968;DHT22;11650;48.106;-1.696;2022-12-10T08:13:20;-2.20;99.90
22968;DHT22;11650;48.106;-1.696;2022-12-10T08:15:46;-2.10;99.90
22968;DHT22;11650;48.106;-1.696;2022-12-10T08:18:11;-2.10;99.90
22968;DHT22;11650;48.106;-1.696;2022-12-10T08:20:37;-2.10;99.90
22968;DHT22;11650;48.106;-1.696;2022-12-10T08:23:03;-2.00;99.90
22968;DHT22;11650;48.106;-1.696;2022-12-10T08:25:28;-2.00;99.90
22968;DHT22;11650;48.106;-1.696;2022-12-10T08:27:54;-2.00;99.90
22968;DHT22;11650;48.106;-1.696;2022-12-10T08:30:19;-1.90;99.90
22968;DHT22;11650;48.106;-1.696;2022-12-10T08:32:45;-1.80;99.90
22968;DHT22;11650;48.106;-1.696;2022-12-10T08:35:10;-1.70;99.90
22968;DHT22;11650;48.106;-1.696;2022-12-10T08:37:40;-1.60;99.90
22968;DHT22;11650;48.106;-1.696;2022-12-10T08:40:06;-1.60;99.90
22968;DHT22;11650;48.106;-1.696;2022-12-10T08:42:32;-1.60;99.90
22968;DHT22;11650;48.106;-1.696;2022-12-10T08:44:58;-1.50;99.90
22968;DHT22;11650;48.106;-1.696;2022-12-10T08:47:23;-1.40;99.90
22968;DHT22;11650;48.106;-1.696;2022-12-10T08:49:49;-1.30;99.90
22968;DHT22;11650;48.106;-1.696;2022-12-10T08:52:15;-1.10;99.90
22968;DHT22;11650;48.106;-1.696;2022-12-10T08:54:41;-1.10;99.90
22968;DHT22;11650;48.106;-1.696;2022-12-10T08:57:06;-1.00;99.90
22968;DHT22;11650;48.106;-1.696;2022-12-10T08:59:32;-1.00;99.90
22968;DHT22;11650;48.106;-1.696;2022-12-10T09:01:57;-0.90;99.90
22968;DHT22;11650;48.106;-1.696;2022-12-10T09:04:23;-0.70;99.90
22968;DHT22;11650;48.106;-1.696;2022-12-10T09:06:48;-0.70;99.90
22968;DHT22;11650;48.106;-1.696;2022-12-10T09:09:15;-0.50;99.90
22968;DHT22;11650;48.106;-1.696;2022-12-10T09:11:41;-0.40;99.90
22968;DHT22;11650;48.106;-1.696;2022-12-10T09:14:07;-0.30;99.90
22968;DHT22;11650;48.106;-1.696;2022-12-10T09:16:36;-0.20;99.90
22968;DHT22;11650;48.106;-1.696;2022-12-10T09:19:03;-0.10;99.90
22968;DHT22;11650;48.106;-1.696;2022-12-10T09:21:29;0.00;99.90
22968;DHT22;11650;48.106;-1.696;2022-12-10T09:23:56;0.10;99.90
22968;DHT22;11650;48.106;-1.696;2022-12-10T09:26:22;0.20;99.90
22968;DHT22;11650;48.106;-1.696;2022-12-10T09:28:48;0.20;99.90
22968;DHT22;11650;48.106;-1.696;2022-12-10T09:31:16;0.20;99.90
22968;DHT22;11650;48.106;-1.696;2022-12-10T09:33:42;0.10;99.90
22968;DHT22;11650;48.106;-1.696;2022-12-10T09:36:10;0.10;99.90
22968;DHT22;11650;48.106;-1.696;2022-12-10T09:38:37;0.10;99.90
22968;DHT22;11650;48.106;-1.696;2022-12-10T09:43:45;0.00;99.90
22968;DHT22;11650;48.106;-1.696;2022-12-10T09:51:40;0.30;99.90
22968;DHT22;11650;48.106;-1.696;2022-12-10T09:54:19;0.50;99.90
22968;DHT22;11650;48.106;-1.696;2022-12-10T09:56:48;0.60;99.90
22968;DHT22;11650;48.106;-1.696;2022-12-10T09:59:20;0.80;99.90
22968;DHT22;11650;48.106;-1.696;2022-12-10T10:01:51;0.90;99.90
22968;DHT22;11650;48.106;-1.696;2022-12-10T10:04:22;1.10;99.90
22968;DHT22;11650;48.106;-1.696;2022-12-10T10:06:48;1.20;99.90
22968;DHT22;11650;48.106;-1.696;2022-12-10T10:09:14;1.30;99.90
22968;DHT22;11650;48.106;-1.696;2022-12-10T10:11:41;1.30;99.90
22968;DHT22;11650;48.106;-1.696;2022-12-10T10:14:15;1.40;99.90
22968;DHT22;11650;48.106;-1.696;2022-12-10T10:17:01;1.60;99.90
22968;DHT22;11650;48.106;-1.696;2022-12-10T10:19:30;1.60;99.90
22968;DHT22;11650;48.106;-1.696;2022-12-10T10:21:58;1.70;99.90
22968;DHT22;11650;48.106;-1.696;2022-12-10T10:24:44;1.90;99.90
22968;DHT22;11650;48.106;-1.696;2022-12-10T10:27:25;2.00;99.90
22968;DHT22;11650;48.106;-1.696;2022-12-10T10:29:57;2.10;99.90
22968;DHT22;11650;48.106;-1.696;2022-12-10T10:32:26;2.00;99.90
22968;DHT22;11650;48.106;-1.696;2022-12-10T10:34:56;2.10;99.90
22968;DHT22;11650;48.106;-1.696;2022-12-10T10:39:50;2.40;99.90
22968;DHT22;11650;48.106;-1.696;2022-12-10T10:42:37;2.40;99.90
22968;DHT22;11650;48.106;-1.696;2022-12-10T10:45:06;2.50;99.90
22968;DHT22;11650;48.106;-1.696;2022-12-10T10:48:22;2.40;99.90
22968;DHT22;11650;48.106;-1.696;2022-12-10T10:51:07;2.60;99.90
22968;DHT22;11650;48.106;-1.696;2022-12-10T10:53:46;2.70;99.90
22968;DHT22;11650;48.106;-1.696;2022-12-10T10:56:15;2.80;99.90
22968;DHT22;11650;48.106;-1.696;2022-12-10T11:04:13;2.90;99.90
22968;DHT22;11650;48.106;-1.696;2022-12-10T11:06:40;2.90;99.90
22968;DHT22;11650;48.106;-1.696;2022-12-10T11:09:06;3.00;99.90
22968;DHT22;11650;48.106;-1.696;2022-12-10T11:11:33;3.10;99.90
22968;DHT22;11650;48.106;-1.696;2022-12-10T11:14:38;3.10;99.90
22968;DHT22;11650;48.106;-1.696;2022-12-10T11:19:41;3.40;99.90
22968;DHT22;11650;48.106;-1.696;2022-12-10T11:22:31;3.50;99.90
22968;DHT22;11650;48.106;-1.696;2022-12-10T11:24:58;3.60;99.90
22968;DHT22;11650;48.106;-1.696;2022-12-10T11:27:49;3.60;99.90
22968;DHT22;11650;48.106;-1.696;2022-12-10T11:30:22;3.70;99.90
22968;DHT22;11650;48.106;-1.696;2022-12-10T11:38:24;3.90;99.90
22968;DHT22;11650;48.106;-1.696;2022-12-10T11:41:25;3.90;99.90
22968;DHT22;11650;48.106;-1.696;2022-12-10T11:47:15;3.80;99.90
22968;DHT22;11650;48.106;-1.696;2022-12-10T12:00:52;4.50;99.90
22968;DHT22;11650;48.106;-1.696;2022-12-10T12:03:49;4.60;99.90
22968;DHT22;11650;48.106;-1.696;2022-12-10T12:14:16;5.50;99.90
22968;DHT22;11650;48.106;-1.696;2022-12-10T12:16:49;6.80;99.90
22968;DHT22;11650;48.106;-1.696;2022-12-10T12:19:23;8.50;99.90
22968;DHT22;11650;48.106;-1.696;2022-12-10T12:21:51;9.10;99.90
22968;DHT22;11650;48.106;-1.696;2022-12-10T12:24:35;9.60;99.90
22968;DHT22;11650;48.106;-1.696;2022-12-10T12:29:44;10.80;99.90
22968;DHT22;11650;48.106;-1.696;2022-12-10T12:32:29;11.60;99.90
22968;DHT22;11650;48.106;-1.696;2022-12-10T12:35:13;12.40;99.90
22968;DHT22;11650;48.106;-1.696;2022-12-10T12:38:01;13.50;99.90
22968;DHT22;11650;48.106;-1.696;2022-12-10T12:40:51;13.50;99.90
22968;DHT22;11650;48.106;-1.696;2022-12-10T12:43:23;13.20;99.90
22968;DHT22;11650;48.106;-1.696;2022-12-10T12:45:54;13.80;99.90
22968;DHT22;11650;48.106;-1.696;2022-12-10T12:53:34;13.80;99.90
22968;DHT22;11650;48.106;-1.696;2022-12-10T12:59:10;13.70;99.90
22968;DHT22;11650;48.106;-1.696;2022-12-10T13:01:47;14.00;99.90
22968;DHT22;11650;48.106;-1.696;2022-12-10T13:04:15;14.30;99.90
22968;DHT22;11650;48.106;-1.696;2022-12-10T13:06:41;14.80;99.90
22968;DHT22;11650;48.106;-1.696;2022-12-10T13:20:41;13.90;99.90
22968;DHT22;11650;48.106;-1.696;2022-12-10T13:36:12;14.50;99.90
22968;DHT22;11650;48.106;-1.696;2022-12-10T13:38:54;14.00;99.90
22968;DHT22;11650;48.106;-1.696;2022-12-10T13:41:20;14.20;99.90
22968;DHT22;11650;48.106;-1.696;2022-12-10T13:50:06;14.50;99.90
22968;DHT22;11650;48.106;-1.696;2022-12-10T13:52:46;14.00;99.90
22968;DHT22;11650;48.106;-1.696;2022-12-10T14:00:48;14.10;99.90
22968;DHT22;11650;48.106;-1.696;2022-12-10T14:06:18;11.40;99.90
22968;DHT22;11650;48.106;-1.696;2022-12-10T14:09:06;12.00;99.90
22968;DHT22;11650;48.106;-1.696;2022-12-10T14:11:45;10.90;99.90
22968;DHT22;11650;48.106;-1.696;2022-12-10T14:14:39;9.60;99.90
22968;DHT22;11650;48.106;-1.696;2022-12-10T14:17:20;8.90;99.90
22968;DHT22;11650;48.106;-1.696;2022-12-10T14:19:50;8.50;99.90
22968;DHT22;11650;48.106;-1.696;2022-12-10T14:22:37;9.20;99.90
22968;DHT22;11650;48.106;-1.696;2022-12-10T14:25:09;10.10;99.90
22968;DHT22;11650;48.106;-1.696;2022-12-10T14:27:36;10.00;99.90
22968;DHT22;11650;48.106;-1.696;2022-12-10T14:30:34;10.20;99.90
22968;DHT22;11650;48.106;-1.696;2022-12-10T14:33:08;9.80;99.90
22968;DHT22;11650;48.106;-1.696;2022-12-10T14:35:37;9.10;99.90
22968;DHT22;11650;48.106;-1.696;2022-12-10T14:38:02;8.30;99.90
22968;DHT22;11650;48.106;-1.696;2022-12-10T14:40:40;7.70;99.90
22968;DHT22;11650;48.106;-1.696;2022-12-10T14:43:11;7.50;99.90
22968;DHT22;11650;48.106;-1.696;2022-12-10T14:45:45;7.30;99.90
22968;DHT22;11650;48.106;-1.696;2022-12-10T14:48:12;7.50;99.90
22968;DHT22;11650;48.106;-1.696;2022-12-10T14:50:39;7.10;99.90
22968;DHT22;11650;48.106;-1.696;2022-12-10T14:53:08;7.00;99.90
22968;DHT22;11650;48.106;-1.696;2022-12-10T14:55:37;6.80;99.90
22968;DHT22;11650;48.106;-1.696;2022-12-10T14:58:03;6.70;99.90
22968;DHT22;11650;48.106;-1.696;2022-12-10T15:00:30;6.60;99.90
22968;DHT22;11650;48.106;-1.696;2022-12-10T15:02:58;6.40;99.90
22968;DHT22;11650;48.106;-1.696;2022-12-10T15:05:28;6.30;99.90
22968;DHT22;11650;48.106;-1.696;2022-12-10T15:07:56;6.10;99.90
22968;DHT22;11650;48.106;-1.696;2022-12-10T15:10:40;6.10;99.90
22968;DHT22;11650;48.106;-1.696;2022-12-10T15:13:13;5.90;99.90
22968;DHT22;11650;48.106;-1.696;2022-12-10T15:15:42;5.70;99.90
22968;DHT22;11650;48.106;-1.696;2022-12-10T15:18:11;5.70;99.90
22968;DHT22;11650;48.106;-1.696;2022-12-10T15:23:17;5.50;99.90
22968;DHT22;11650;48.106;-1.696;2022-12-10T15:28:30;5.40;99.90
22968;DHT22;11650;48.106;-1.696;2022-12-10T15:31:21;5.30;99.90
22968;DHT22;11650;48.106;-1.696;2022-12-10T15:33:53;5.20;99.90
22968;DHT22;11650;48.106;-1.696;2022-12-10T15:38:57;5.10;99.90
22968;DHT22;11650;48.106;-1.696;2022-12-10T15:44:18;4.90;99.90
22968;DHT22;11650;48.106;-1.696;2022-12-10T15:46:57;4.80;99.90
22968;DHT22;11650;48.106;-1.696;2022-12-10T15:49:22;4.80;99.90
22968;DHT22;11650;48.106;-1.696;2022-12-10T15:51:48;4.70;99.90
22968;DHT22;11650;48.106;-1.696;2022-12-10T15:54:36;4.60;99.90
22968;DHT22;11650;48.106;-1.696;2022-12-10T15:57:12;4.60;99.90
22968;DHT22;11650;48.106;-1.696;2022-12-10T15:59:38;4.50;99.90
22968;DHT22;11650;48.106;-1.696;2022-12-10T16:04:52;4.40;99.90
22968;DHT22;11650;48.106;-1.696;2022-12-10T16:07:18;4.40;99.90
22968;DHT22;11650;48.106;-1.696;2022-12-10T16:09:45;4.30;99.90
22968;DHT22;11650;48.106;-1.696;2022-12-10T16:12:12;4.20;99.90
22968;DHT22;11650;48.106;-1.696;2022-12-10T16:14:42;4.10;99.90
22968;DHT22;11650;48.106;-1.696;2022-12-10T16:17:10;4.10;99.90
22968;DHT22;11650;48.106;-1.696;2022-12-10T16:19:36;4.10;99.90
22968;DHT22;11650;48.106;-1.696;2022-12-10T16:22:02;4.00;99.90
22968;DHT22;11650;48.106;-1.696;2022-12-10T16:24:28;3.90;99.90
22968;DHT22;11650;48.106;-1.696;2022-12-10T16:26:54;3.90;99.90
22968;DHT22;11650;48.106;-1.696;2022-12-10T16:29:19;3.80;99.90
22968;DHT22;11650;48.106;-1.696;2022-12-10T16:31:46;3.80;99.90
22968;DHT22;11650;48.106;-1.696;2022-12-10T16:34:12;3.70;99.90
22968;DHT22;11650;48.106;-1.696;2022-12-10T16:36:37;3.70;99.90
22968;DHT22;11650;48.106;-1.696;2022-12-10T16:39:03;3.60;99.90
22968;DHT22;11650;48.106;-1.696;2022-12-10T16:41:30;3.60;99.90
22968;DHT22;11650;48.106;-1.696;2022-12-10T16:43:56;3.50;99.90
22968;DHT22;11650;48.106;-1.696;2022-12-10T16:46:22;3.50;99.90
22968;DHT22;11650;48.106;-1.696;2022-12-10T16:48:47;3.40;99.90
22968;DHT22;11650;48.106;-1.696;2022-12-10T16:51:23;3.30;99.90
22968;DHT22;11650;48.106;-1.696;2022-12-10T16:53:49;3.30;99.90
22968;DHT22;11650;48.106;-1.696;2022-12-10T16:56:15;3.20;99.90
22968;DHT22;11650;48.106;-1.696;2022-12-10T16:58:42;3.10;99.90
22968;DHT22;11650;48.106;-1.696;2022-12-10T17:01:29;3.00;99.90
22968;DHT22;11650;48.106;-1.696;2022-12-10T17:03:59;3.00;99.90
22968;DHT22;11650;48.106;-1.696;2022-12-10T17:06:25;2.90;99.90
22968;DHT22;11650;48.106;-1.696;2022-12-10T17:08:51;2.90;99.90
22968;DHT22;11650;48.106;-1.696;2022-12-10T17:11:23;2.80;99.90
22968;DHT22;11650;48.106;-1.696;2022-12-10T17:16:45;2.70;99.90
22968;DHT22;11650;48.106;-1.696;2022-12-10T17:19:11;2.70;99.90
22968;DHT22;11650;48.106;-1.696;2022-12-10T17:21:37;2.60;99.90
22968;DHT22;11650;48.106;-1.696;2022-12-10T17:24:03;2.60;99.90
22968;DHT22;11650;48.106;-1.696;2022-12-10T17:26:31;2.70;99.90
22968;DHT22;11650;48.106;-1.696;2022-12-10T17:31:31;2.60;99.90
22968;DHT22;11650;48.106;-1.696;2022-12-10T17:33:57;2.60;99.90
22968;DHT22;11650;48.106;-1.696;2022-12-10T17:36:22;2.60;99.90
22968;DHT22;11650;48.106;-1.696;2022-12-10T17:38:48;2.50;99.90
22968;DHT22;11650;48.106;-1.696;2022-12-10T17:41:14;2.50;99.90
22968;DHT22;11650;48.106;-1.696;2022-12-10T17:43:41;2.50;99.90
22968;DHT22;11650;48.106;-1.696;2022-12-10T17:46:08;2.40;99.90
22968;DHT22;11650;48.106;-1.696;2022-12-10T17:48:35;2.40;99.90